Flight Track Log - Related Links

Times and Time Zones

All times are in EDT time to prevent confusion due to time zone crossing. See the N180KT flight status page for this flight to view local times or setup timezone preferences in your user account.

Time Position Orientation Groundspeed Altitude Reporting Facility
EDT Latitude Longitude Course Direction KTS MPH feet Rate Location/Type
12:24PM 34.0167 -84.6500 248° West 152 175 2,300  Level Atlanta TRACON
12:26PM 34.0000 -84.7000 248° West 132 152 3,200 850 Climbing Atlanta TRACON
12:26PM 34.0000 -84.7333 270° West 132 152 4,000 611 Climbing Atlanta TRACON
12:27PM 33.9833 -84.7667 239° Southwest 146 168 4,300 579 Climbing Atlanta TRACON
12:28PM 33.9500 -84.8000 220° Southwest 132 152 5,100 762 Climbing Atlanta TRACON
12:29PM 33.9167 -84.8333 220° Southwest 128 147 5,900 429 Climbing Atlanta TRACON
12:30PM 33.9000 -84.8667 239° Southwest 150 173 6,000 50 Climbing Atlanta TRACON
12:31PM 33.8667 -84.9000 220° Southwest 161 185 6,000  Level Atlanta TRACON
12:33PM 33.8158 -84.9689 228° Southwest 163 188 6,000  Level Atlanta Center
12:34PM 33.7864 -85.0086 228° Southwest 163 188 6,000  Level Atlanta Center
12:36PM 33.7981 -85.0986 279° West 147 169 6,000  Level Atlanta Center
12:37PM 33.8183 -85.1539 294° West 160 184 6,000  Level Atlanta Center
12:38PM 33.8408 -85.2017 300° West 160 184 6,000  Level Atlanta Center
12:39PM 33.8614 -85.2547 295° West 160 184 6,000  Level Atlanta Center
12:40PM 33.8775 -85.3047 291° West 165 190 6,000 -200 Level Atlanta Center
12:41PM 33.9019 -85.3553 300° West 165 190 5,600 -450 Descending Atlanta Center
12:42PM 33.9203 -85.4081 293° West 172 198 5,100 -500 Descending Atlanta Center
12:43PM 33.9383 -85.4586 293° West 172 198 4,600 -500 Descending Atlanta Center
12:44PM 33.9589 -85.5064 297° West 172 198 4,100 -250 Descending Atlanta Center
12:45PM 33.9769 -85.5544 294° West 172 198 4,100  Level Atlanta Center
12:46PM 33.9911 -85.5972 292° West 167 192 4,100  Level Atlanta Center
12:47PM 34.0092 -85.6450 295° West 162 186 4,100  Level Atlanta Center
12:48PM 34.0231 -85.6931 289° West 162 186 4,100  Level Atlanta Center
12:49PM 34.0433 -85.7461 295° West 157 181 4,100 -50 Level Atlanta Center
12:50PM 34.0594 -85.7964 291° West 157 181 4,000 950 Descending Atlanta Center
12:51PM 34.0733 -85.8469 288° West 157 181 6,000 1,000 Climbing Atlanta Center
12:52PM 34.0892 -85.8975 291° West 157 181 6,000  Level Atlanta Center
12:53PM 34.0911 -85.9075 283° West 157 181 6,000  Level Atlanta Center
12:55PM 34.0911 -85.9075 360° North 157 181 6,000 -923 Level Atlanta Center
12:56PM 34.1514 -86.0469 298° West 128 147 3,600  Descending Atlanta Center
12:56PM 34.0911 -85.9075 118° Southeast 157 181 6,000 1,714 Climbing Atlanta Center
12:57PM 34.1717 -86.0900 298° West 157 181 6,000  Level Atlanta Center

Login

Don't have an account? Register now (free) for customized features, flight alerts, and more!